sensor_id;sensor_type;location;lat;lon;timestamp;pressure;altitude;pressure_sealevel;temperature;humidity
32735;BME280;19112;51.076;3.706;2024-02-16T00:01:47;100168.81;;;12.52;71.63
32735;BME280;19112;51.076;3.706;2024-02-16T00:04:12;100193.63;;;12.71;69.10
32735;BME280;19112;51.076;3.706;2024-02-16T00:06:38;100359.25;;;13.68;70.57
32735;BME280;19112;51.076;3.706;2024-02-16T00:09:04;100296.16;;;13.86;70.22
32735;BME280;19112;51.076;3.706;2024-02-16T00:11:32;100099.19;;;12.31;68.05
32735;BME280;19112;51.076;3.706;2024-02-16T00:13:59;100600.84;;;15.58;70.28
32735;BME280;19112;51.076;3.706;2024-02-16T00:16:26;99987.16;;;11.85;70.22
32735;BME280;19112;51.076;3.706;2024-02-16T00:18:53;100075.19;;;12.75;70.51
32735;BME280;19112;51.076;3.706;2024-02-16T00:21:19;100560.84;;;15.23;70.91
32735;BME280;19112;51.076;3.706;2024-02-16T00:23:45;100325.31;;;13.98;69.36
32735;BME280;19112;51.076;3.706;2024-02-16T00:26:12;100437.94;;;14.77;69.68
32735;BME280;19112;51.076;3.706;2024-02-16T00:28:39;100311.03;;;13.81;69.92
32735;BME280;19112;51.076;3.706;2024-02-16T00:31:05;100328.28;;;14.32;69.63
32735;BME280;19112;51.076;3.706;2024-02-16T00:33:32;100529.97;;;15.22;70.09
32735;BME280;19112;51.076;3.706;2024-02-16T00:35:59;100272.47;;;13.95;69.77
32735;BME280;19112;51.076;3.706;2024-02-16T00:38:25;100111.19;;;12.78;69.76
32735;BME280;19112;51.076;3.706;2024-02-16T00:40:51;99652.41;;;10.42;67.49
32735;BME280;19112;51.076;3.706;2024-02-16T00:43:17;100502.75;;;15.29;67.84
32735;BME280;19112;51.076;3.706;2024-02-16T00:45:44;100602.75;;;15.67;68.86
32735;BME280;19112;51.076;3.706;2024-02-16T00:48:11;100770.09;;;16.34;69.00
32735;BME280;19112;51.076;3.706;2024-02-16T00:50:37;100476.03;;;14.99;69.34
32735;BME280;19112;51.076;3.706;2024-02-16T00:53:03;100507.06;;;15.23;66.56
32735;BME280;19112;51.076;3.706;2024-02-16T00:55:30;100358.31;;;14.41;68.71
32735;BME280;19112;51.076;3.706;2024-02-16T00:57:56;100300.88;;;14.21;64.28
32735;BME280;19112;51.076;3.706;2024-02-16T01:00:22;100036.50;;;12.68;65.40
32735;BME280;19112;51.076;3.706;2024-02-16T01:02:51;100491.41;;;15.49;67.10
32735;BME280;19112;51.076;3.706;2024-02-16T01:05:19;100491.38;;;15.41;68.62
32735;BME280;19112;51.076;3.706;2024-02-16T01:07:47;100637.38;;;15.96;68.44
32735;BME280;19112;51.076;3.706;2024-02-16T01:10:13;99905.78;;;11.97;66.60
32735;BME280;19112;51.076;3.706;2024-02-16T01:12:39;99880.78;;;11.62;67.04
32735;BME280;19112;51.076;3.706;2024-02-16T01:15:06;100748.34;;;16.72;68.18
32735;BME280;19112;51.076;3.706;2024-02-16T01:17:32;100237.91;;;13.66;67.84
32735;BME280;19112;51.076;3.706;2024-02-16T01:19:58;99811.38;;;11.49;69.16
32735;BME280;19112;51.076;3.706;2024-02-16T01:22:26;100442.44;;;14.88;68.93
32735;BME280;19112;51.076;3.706;2024-02-16T01:24:54;100162.63;;;13.17;66.87
32735;BME280;19112;51.076;3.706;2024-02-16T01:27:20;100088.53;;;12.92;66.65
32735;BME280;19112;51.076;3.706;2024-02-16T01:29:47;99998.34;;;12.36;67.06
32735;BME280;19112;51.076;3.706;2024-02-16T01:32:12;100802.16;;;16.66;66.90
32735;BME280;19112;51.076;3.706;2024-02-16T01:34:39;100620.44;;;15.76;66.91
32735;BME280;19112;51.076;3.706;2024-02-16T01:37:05;100375.31;;;14.66;67.11
32735;BME280;19112;51.076;3.706;2024-02-16T01:39:31;100293.16;;;14.39;65.44
32735;BME280;19112;51.076;3.706;2024-02-16T01:41:58;100650.84;;;16.30;66.39
32735;BME280;19112;51.076;3.706;2024-02-16T01:44:23;100361.22;;;14.66;65.88
32735;BME280;19112;51.076;3.706;2024-02-16T01:46:49;100124.50;;;12.89;64.30
32735;BME280;19112;51.076;3.706;2024-02-16T01:49:15;99992.41;;;12.52;66.03
32735;BME280;19112;51.076;3.706;2024-02-16T01:51:42;100180.69;;;13.60;66.82
32735;BME280;19112;51.076;3.706;2024-02-16T01:54:12;100490.44;;;15.34;67.15
32735;BME280;19112;51.076;3.706;2024-02-16T01:56:38;100211.28;;;13.46;66.74
32735;BME280;19112;51.076;3.706;2024-02-16T01:59:06;100161.09;;;13.35;67.50
32735;BME280;19112;51.076;3.706;2024-02-16T02:01:32;100191.00;;;13.38;67.49
32735;BME280;19112;51.076;3.706;2024-02-16T02:03:58;100475.38;;;15.27;68.44
32735;BME280;19112;51.076;3.706;2024-02-16T02:06:24;100573.66;;;15.73;67.59
32735;BME280;19112;51.076;3.706;2024-02-16T02:08:50;100541.72;;;15.50;68.59
32735;BME280;19112;51.076;3.706;2024-02-16T02:11:17;100157.59;;;13.38;68.34
32735;BME280;19112;51.076;3.706;2024-02-16T02:13:46;100210.41;;;13.44;67.55
32735;BME280;19112;51.076;3.706;2024-02-16T02:16:12;100089.03;;;12.57;68.03
32735;BME280;19112;51.076;3.706;2024-02-16T02:18:38;99985.25;;;11.75;68.63
32735;BME280;19112;51.076;3.706;2024-02-16T02:21:05;100311.13;;;13.87;68.96
32735;BME280;19112;51.076;3.706;2024-02-16T02:23:32;99876.28;;;10.92;68.13
32735;BME280;19112;51.076;3.706;2024-02-16T02:25:59;100172.09;;;13.02;68.80
32735;BME280;19112;51.076;3.706;2024-02-16T02:28:26;100047.38;;;12.29;69.11
32735;BME280;19112;51.076;3.706;2024-02-16T02:30:53;100032.47;;;12.29;69.00
32735;BME280;19112;51.076;3.706;2024-02-16T02:33:20;100350.94;;;14.10;69.14
32735;BME280;19112;51.076;3.706;2024-02-16T02:35:46;100707.41;;;16.30;68.35
32735;BME280;19112;51.076;3.706;2024-02-16T02:38:16;99971.81;;;12.19;68.78
32735;BME280;19112;51.076;3.706;2024-02-16T02:40:45;100722.41;;;16.34;69.14
32735;BME280;19112;51.076;3.706;2024-02-16T02:43:13;99970.94;;;12.17;68.90
32735;BME280;19112;51.076;3.706;2024-02-16T02:45:40;100656.31;;;15.49;69.21
32735;BME280;19112;51.076;3.706;2024-02-16T02:48:06;100560.97;;;15.37;69.14
32735;BME280;19112;51.076;3.706;2024-02-16T02:50:33;100670.28;;;16.29;69.05
32735;BME280;19112;51.076;3.706;2024-02-16T02:53:01;100471.63;;;14.99;68.89
32735;BME280;19112;51.076;3.706;2024-02-16T02:55:27;100351.09;;;14.25;68.56
32735;BME280;19112;51.076;3.706;2024-02-16T02:57:55;99938.28;;;11.99;68.47
32735;BME280;19112;51.076;3.706;2024-02-16T03:00:21;100430.69;;;14.54;68.12
32735;BME280;19112;51.076;3.706;2024-02-16T03:02:46;100461.09;;;15.02;68.75
32735;BME280;19112;51.076;3.706;2024-02-16T03:05:12;100572.44;;;15.39;69.31
32735;BME280;19112;51.076;3.706;2024-02-16T03:07:39;100145.56;;;12.87;68.84
32735;BME280;19112;51.076;3.706;2024-02-16T03:10:07;99967.22;;;11.99;67.99
32735;BME280;19112;51.076;3.706;2024-02-16T03:12:39;100283.97;;;14.00;68.35
32735;BME280;19112;51.076;3.706;2024-02-16T03:15:05;99876.56;;;11.74;68.45
32735;BME280;19112;51.076;3.706;2024-02-16T03:17:31;100002.34;;;12.04;68.53
32735;BME280;19112;51.076;3.706;2024-02-16T03:20:00;100695.16;;;16.47;68.64
32735;BME280;19112;51.076;3.706;2024-02-16T03:22:27;100078.88;;;12.91;68.54
32735;BME280;19112;51.076;3.706;2024-02-16T03:24:56;100585.16;;;15.74;68.83
32735;BME280;19112;51.076;3.706;2024-02-16T03:27:24;100296.22;;;13.94;68.48
32735;BME280;19112;51.076;3.706;2024-02-16T03:29:51;100504.72;;;15.59;68.62
32735;BME280;19112;51.076;3.706;2024-02-16T03:32:17;100601.72;;;15.56;68.32
32735;BME280;19112;51.076;3.706;2024-02-16T03:34:42;100271.47;;;13.82;68.18
32735;BME280;19112;51.076;3.706;2024-02-16T03:37:08;100039.69;;;12.43;68.00
32735;BME280;19112;51.076;3.706;2024-02-16T03:39:35;100349.59;;;14.49;68.26
32735;BME280;19112;51.076;3.706;2024-02-16T03:42:02;99789.34;;;11.38;68.11
32735;BME280;19112;51.076;3.706;2024-02-16T03:44:28;100336.25;;;14.38;67.93
32735;BME280;19112;51.076;3.706;2024-02-16T03:46:53;99983.47;;;12.39;67.27
32735;BME280;19112;51.076;3.706;2024-02-16T03:49:19;100236.59;;;14.15;68.00
32735;BME280;19112;51.076;3.706;2024-02-16T03:51:47;100713.03;;;16.74;67.80
32735;BME280;19112;51.076;3.706;2024-02-16T03:54:13;100275.41;;;14.24;67.88
32735;BME280;19112;51.076;3.706;2024-02-16T03:56:41;99905.97;;;12.11;68.06
32735;BME280;19112;51.076;3.706;2024-02-16T03:59:07;100465.44;;;14.97;68.12
32735;BME280;19112;51.076;3.706;2024-02-16T04:01:34;99936.97;;;11.71;67.84
32735;BME280;19112;51.076;3.706;2024-02-16T04:03:59;99906.63;;;11.93;67.94
32735;BME280;19112;51.076;3.706;2024-02-16T04:06:25;100159.38;;;13.38;68.38
32735;BME280;19112;51.076;3.706;2024-02-16T04:08:51;100124.72;;;13.07;67.99
32735;BME280;19112;51.076;3.706;2024-02-16T04:11:18;99971.25;;;12.41;67.87
32735;BME280;19112;51.076;3.706;2024-02-16T04:13:44;100453.25;;;15.16;68.16
32735;BME280;19112;51.076;3.706;2024-02-16T04:16:10;100098.84;;;12.72;67.48
32735;BME280;19112;51.076;3.706;2024-02-16T04:18:36;100136.69;;;12.79;67.81
32735;BME280;19112;51.076;3.706;2024-02-16T04:21:02;100524.03;;;15.48;67.69
32735;BME280;19112;51.076;3.706;2024-02-16T04:23:29;100192.06;;;13.56;67.97
32735;BME280;19112;51.076;3.706;2024-02-16T04:25:55;100253.25;;;14.07;68.57
32735;BME280;19112;51.076;3.706;2024-02-16T04:28:21;100529.25;;;15.37;67.72
32735;BME280;19112;51.076;3.706;2024-02-16T04:30:48;100431.50;;;14.52;68.27
32735;BME280;19112;51.076;3.706;2024-02-16T04:33:14;100615.34;;;16.00;68.45
32735;BME280;19112;51.076;3.706;2024-02-16T04:35:41;100412.28;;;14.65;68.66
32735;BME280;19112;51.076;3.706;2024-02-16T04:38:08;100309.59;;;14.09;68.72
32735;BME280;19112;51.076;3.706;2024-02-16T04:40:37;100117.56;;;12.97;68.43
32735;BME280;19112;51.076;3.706;2024-02-16T04:43:09;100565.69;;;15.68;68.85
32735;BME280;19112;51.076;3.706;2024-02-16T04:45:35;99745.78;;;10.87;68.53
32735;BME280;19112;51.076;3.706;2024-02-16T04:48:05;99745.34;;;10.58;68.41
32735;BME280;19112;51.076;3.706;2024-02-16T04:50:37;100629.25;;;15.71;69.20
32735;BME280;19112;51.076;3.706;2024-02-16T04:53:03;100460.91;;;14.85;69.10
32735;BME280;19112;51.076;3.706;2024-02-16T04:55:31;99974.06;;;11.88;68.91
32735;BME280;19112;51.076;3.706;2024-02-16T04:57:57;100100.25;;;12.44;69.06
32735;BME280;19112;51.076;3.706;2024-02-16T05:00:27;100325.25;;;13.91;69.25
32735;BME280;19112;51.076;3.706;2024-02-16T05:02:54;100608.59;;;15.35;69.76
32735;BME280;19112;51.076;3.706;2024-02-16T05:05:19;100328.25;;;13.50;69.70
32735;BME280;19112;51.076;3.706;2024-02-16T05:07:49;100549.31;;;15.16;69.77
32735;BME280;19112;51.076;3.706;2024-02-16T05:10:15;100527.91;;;14.89;70.13
32735;BME280;19112;51.076;3.706;2024-02-16T05:12:42;100810.63;;;16.24;70.31
32735;BME280;19112;51.076;3.706;2024-02-16T05:15:09;100716.72;;;15.87;70.60
32735;BME280;19112;51.076;3.706;2024-02-16T05:17:34;100176.25;;;12.23;70.53
32735;BME280;19112;51.076;3.706;2024-02-16T05:20:00;99976.81;;;11.40;70.56
32735;BME280;19112;51.076;3.706;2024-02-16T05:22:26;100829.84;;;16.03;70.96
32735;BME280;19112;51.076;3.706;2024-02-16T05:24:52;100774.22;;;16.00;71.21
32735;BME280;19112;51.076;3.706;2024-02-16T05:27:18;100164.94;;;12.28;71.13
32735;BME280;19112;51.076;3.706;2024-02-16T05:29:46;99663.34;;;9.63;71.05
32735;BME280;19112;51.076;3.706;2024-02-16T05:32:15;100252.22;;;12.54;71.43
32735;BME280;19112;51.076;3.706;2024-02-16T05:34:42;100083.41;;;11.77;71.62
32735;BME280;19112;51.076;3.706;2024-02-16T05:37:08;100621.44;;;15.00;71.95
32735;BME280;19112;51.076;3.706;2024-02-16T05:39:38;99356.19;;;7.71;71.66
32735;BME280;19112;51.076;3.706;2024-02-16T05:42:35;100364.41;;;13.58;72.13
32735;BME280;19112;51.076;3.706;2024-02-16T05:45:02;100198.44;;;12.39;72.24
32735;BME280;19112;51.076;3.706;2024-02-16T05:47:31;99921.69;;;10.87;71.77
32735;BME280;19112;51.076;3.706;2024-02-16T05:50:00;100381.50;;;13.23;72.43
32735;BME280;19112;51.076;3.706;2024-02-16T05:52:29;100091.56;;;11.91;72.38
32735;BME280;19112;51.076;3.706;2024-02-16T05:54:57;100895.22;;;16.06;72.68
32735;BME280;19112;51.076;3.706;2024-02-16T05:57:23;100573.16;;;14.45;72.50
32735;BME280;19112;51.076;3.706;2024-02-16T05:59:50;100151.34;;;11.99;71.97
32735;BME280;19112;51.076;3.706;2024-02-16T06:02:18;100454.13;;;14.28;72.26
32735;BME280;19112;51.076;3.706;2024-02-16T06:04:44;100340.56;;;13.49;72.16
32735;BME280;19112;51.076;3.706;2024-02-16T06:07:09;100065.38;;;11.98;71.59
32735;BME280;19112;51.076;3.706;2024-02-16T06:09:36;100384.19;;;13.94;71.89
32735;BME280;19112;51.076;3.706;2024-02-16T06:12:07;100467.22;;;14.19;71.96
32735;BME280;19112;51.076;3.706;2024-02-16T06:14:35;100377.97;;;13.89;72.08
32735;BME280;19112;51.076;3.706;2024-02-16T06:17:03;100368.22;;;13.82;71.69
32735;BME280;19112;51.076;3.706;2024-02-16T06:19:29;100114.88;;;12.24;71.59
32735;BME280;19112;51.076;3.706;2024-02-16T06:21:55;100892.09;;;16.43;71.76
32735;BME280;19112;51.076;3.706;2024-02-16T06:24:22;100621.47;;;15.05;72.40
32735;BME280;19112;51.076;3.706;2024-02-16T06:26:50;100651.63;;;15.20;72.34
32735;BME280;19112;51.076;3.706;2024-02-16T06:29:19;99992.13;;;11.11;71.86
32735;BME280;19112;51.076;3.706;2024-02-16T06:31:48;100885.97;;;16.49;72.46
32735;BME280;19112;51.076;3.706;2024-02-16T06:34:14;100013.66;;;11.43;71.87
32735;BME280;19112;51.076;3.706;2024-02-16T06:36:41;100219.31;;;12.89;72.32
32735;BME280;19112;51.076;3.706;2024-02-16T06:39:07;100597.63;;;15.00;72.86
32735;BME280;19112;51.076;3.706;2024-02-16T06:41:34;100908.88;;;16.42;73.23
32735;BME280;19112;51.076;3.706;2024-02-16T06:44:00;100640.47;;;14.72;73.51
32735;BME280;19112;51.076;3.706;2024-02-16T06:46:26;100359.00;;;12.90;73.60
32735;BME280;19112;51.076;3.706;2024-02-16T06:48:55;100463.84;;;13.64;74.06
32735;BME280;19112;51.076;3.706;2024-02-16T06:51:25;100375.16;;;13.13;74.21
32735;BME280;19112;51.076;3.706;2024-02-16T06:53:52;100637.47;;;15.15;73.89
32735;BME280;19112;51.076;3.706;2024-02-16T06:56:19;100867.41;;;16.49;74.29
32735;BME280;19112;51.076;3.706;2024-02-16T06:58:46;99930.75;;;11.07;74.00
32735;BME280;19112;51.076;3.706;2024-02-16T07:01:16;100287.31;;;13.14;74.22
32735;BME280;19112;51.076;3.706;2024-02-16T07:03:44;100297.84;;;13.13;74.22
32735;BME280;19112;51.076;3.706;2024-02-16T07:06:10;100445.72;;;13.90;74.83
32735;BME280;19112;51.076;3.706;2024-02-16T07:08:43;100541.63;;;14.56;74.20
32735;BME280;19112;51.076;3.706;2024-02-16T07:11:12;100944.44;;;16.64;74.39
32735;BME280;19112;51.076;3.706;2024-02-16T07:13:44;100192.38;;;12.44;73.96
32735;BME280;19112;51.076;3.706;2024-02-16T07:16:11;100609.72;;;14.78;73.83
32735;BME280;19112;51.076;3.706;2024-02-16T07:18:37;100205.31;;;12.29;73.81
32735;BME280;19112;51.076;3.706;2024-02-16T07:21:04;100709.00;;;15.25;73.93
32735;BME280;19112;51.076;3.706;2024-02-16T07:23:30;100658.31;;;14.91;73.88
32735;BME280;19112;51.076;3.706;2024-02-16T07:25:57;100836.84;;;15.96;74.22
32735;BME280;19112;51.076;3.706;2024-02-16T07:28:25;100680.84;;;15.31;74.04
32735;BME280;19112;51.076;3.706;2024-02-16T07:30:52;100260.44;;;12.77;73.59
32735;BME280;19112;51.076;3.706;2024-02-16T07:33:19;100976.44;;;16.83;74.31
32735;BME280;19112;51.076;3.706;2024-02-16T07:35:47;100160.63;;;12.32;73.93
32735;BME280;19112;51.076;3.706;2024-02-16T07:38:13;100480.66;;;13.72;74.08
32735;BME280;19112;51.076;3.706;2024-02-16T07:40:40;101035.72;;;16.85;74.16
32735;BME280;19112;51.076;3.706;2024-02-16T07:43:07;100993.28;;;16.83;74.20
32735;BME280;19112;51.076;3.706;2024-02-16T07:45:34;101032.94;;;16.75;74.09
32735;BME280;19112;51.076;3.706;2024-02-16T07:48:00;100286.16;;;12.38;73.78
32735;BME280;19112;51.076;3.706;2024-02-16T07:50:31;100553.00;;;13.88;73.84
32735;BME280;19112;51.076;3.706;2024-02-16T07:52:57;100754.78;;;15.22;74.16
32735;BME280;19112;51.076;3.706;2024-02-16T07:55:23;100234.31;;;12.33;73.79
32735;BME280;19112;51.076;3.706;2024-02-16T07:57:51;100165.38;;;12.00;73.96
32735;BME280;19112;51.076;3.706;2024-02-16T08:00:18;100825.66;;;15.46;74.15
32735;BME280;19112;51.076;3.706;2024-02-16T08:02:45;100421.22;;;13.36;73.73
32735;BME280;19112;51.076;3.706;2024-02-16T08:05:18;100867.03;;;16.12;74.15
32735;BME280;19112;51.076;3.706;2024-02-16T08:07:46;100996.00;;;16.91;74.52
32735;BME280;19112;51.076;3.706;2024-02-16T08:10:19;100319.09;;;12.66;74.20
32735;BME280;19112;51.076;3.706;2024-02-16T08:12:48;100358.38;;;13.06;74.16
32735;BME280;19112;51.076;3.706;2024-02-16T08:15:14;101041.84;;;16.82;74.68
32735;BME280;19112;51.076;3.706;2024-02-16T08:17:40;100543.69;;;14.13;74.62
32735;BME280;19112;51.076;3.706;2024-02-16T08:20:08;100705.38;;;15.18;74.66
32735;BME280;19112;51.076;3.706;2024-02-16T08:22:36;100068.25;;;11.61;74.14
32735;BME280;19112;51.076;3.706;2024-02-16T08:25:03;100679.31;;;14.79;74.64
32735;BME280;19112;51.076;3.706;2024-02-16T08:27:31;100753.22;;;15.36;74.08
32735;BME280;19112;51.076;3.706;2024-02-16T08:29:58;100661.69;;;14.79;74.38
32735;BME280;19112;51.076;3.706;2024-02-16T08:32:24;100868.91;;;16.19;74.36
32735;BME280;19112;51.076;3.706;2024-02-16T08:34:50;100563.97;;;14.15;74.32
32735;BME280;19112;51.076;3.706;2024-02-16T08:37:16;100903.97;;;15.98;74.51
32735;BME280;19112;51.076;3.706;2024-02-16T08:39:43;100381.81;;;13.47;73.74
32735;BME280;19112;51.076;3.706;2024-02-16T08:42:09;100401.22;;;13.49;74.19
32735;BME280;19112;51.076;3.706;2024-02-16T08:44:35;100732.09;;;15.41;74.12
32735;BME280;19112;51.076;3.706;2024-02-16T08:47:02;100590.13;;;14.61;73.84
32735;BME280;19112;51.076;3.706;2024-02-16T08:49:29;100365.25;;;12.98;73.61
32735;BME280;19112;51.076;3.706;2024-02-16T08:51:56;100739.97;;;15.35;73.66
32735;BME280;19112;51.076;3.706;2024-02-16T08:54:31;100514.78;;;13.61;73.31
32735;BME280;19112;51.076;3.706;2024-02-16T08:56:58;100371.03;;;13.29;73.41
32735;BME280;19112;51.076;3.706;2024-02-16T08:59:27;100917.38;;;16.12;73.36
32735;BME280;19112;51.076;3.706;2024-02-16T09:01:57;100390.34;;;13.28;73.23
32735;BME280;19112;51.076;3.706;2024-02-16T09:04:27;100798.66;;;15.71;73.55
32735;BME280;19112;51.076;3.706;2024-02-16T09:06:53;100529.84;;;13.69;73.12
32735;BME280;19112;51.076;3.706;2024-02-16T09:09:19;100606.09;;;14.06;73.50
32735;BME280;19112;51.076;3.706;2024-02-16T09:11:46;100410.31;;;13.15;73.59
32735;BME280;19112;51.076;3.706;2024-02-16T09:14:12;100622.25;;;13.73;74.36
32735;BME280;19112;51.076;3.706;2024-02-16T09:16:37;100651.47;;;14.43;75.04
32735;BME280;19112;51.076;3.706;2024-02-16T09:19:03;100554.97;;;13.45;75.56
32735;BME280;19112;51.076;3.706;2024-02-16T09:21:35;100904.38;;;15.62;76.91
32735;BME280;19112;51.076;3.706;2024-02-16T09:24:02;100369.72;;;12.48;77.03
32735;BME280;19112;51.076;3.706;2024-02-16T09:26:29;100821.56;;;15.06;77.99
32735;BME280;19112;51.076;3.706;2024-02-16T09:29:00;100679.41;;;13.73;78.33
32735;BME280;19112;51.076;3.706;2024-02-16T09:31:28;100158.28;;;11.00;78.52
32735;BME280;19112;51.076;3.706;2024-02-16T09:33:54;100580.81;;;13.16;78.71
32735;BME280;19112;51.076;3.706;2024-02-16T09:36:23;101002.22;;;15.58;79.38
32735;BME280;19112;51.076;3.706;2024-02-16T09:38:51;101231.63;;;16.63;79.40
32735;BME280;19112;51.076;3.706;2024-02-16T09:41:17;101213.72;;;16.48;80.30
32735;BME280;19112;51.076;3.706;2024-02-16T09:43:43;100469.56;;;12.39;80.53
32735;BME280;19112;51.076;3.706;2024-02-16T09:46:09;100433.16;;;12.15;80.99
32735;BME280;19112;51.076;3.706;2024-02-16T09:48:36;101240.84;;;16.32;81.91
32735;BME280;19112;51.076;3.706;2024-02-16T09:51:04;100542.38;;;12.37;81.92
32735;BME280;19112;51.076;3.706;2024-02-16T09:53:33;100951.94;;;15.02;82.37
32735;BME280;19112;51.076;3.706;2024-02-16T09:55:59;100474.44;;;12.19;82.52
32735;BME280;19112;51.076;3.706;2024-02-16T09:58:30;101051.34;;;15.40;83.19
32735;BME280;19112;51.076;3.706;2024-02-16T10:00:57;100868.06;;;14.41;83.10
32735;BME280;19112;51.076;3.706;2024-02-16T10:03:31;100908.00;;;14.58;83.38
32735;BME280;19112;51.076;3.706;2024-02-16T10:06:08;101034.59;;;15.43;83.66
32735;BME280;19112;51.076;3.706;2024-02-16T10:08:57;100794.06;;;13.90;83.45
32735;BME280;19112;51.076;3.706;2024-02-16T10:11:26;100417.63;;;11.47;83.01
32735;BME280;19112;51.076;3.706;2024-02-16T10:14:03;100897.75;;;14.28;83.80
32735;BME280;19112;51.076;3.706;2024-02-16T10:16:31;100975.44;;;14.85;84.18
32735;BME280;19112;51.076;3.706;2024-02-16T10:19:09;100611.31;;;12.61;84.54
32735;BME280;19112;51.076;3.706;2024-02-16T10:21:38;101054.91;;;14.92;84.67
32735;BME280;19112;51.076;3.706;2024-02-16T10:24:09;100950.97;;;14.48;84.95
32735;BME280;19112;51.076;3.706;2024-02-16T10:26:37;100317.69;;;10.67;84.63
32735;BME280;19112;51.076;3.706;2024-02-16T10:29:09;100964.44;;;14.60;84.94
32735;BME280;19112;51.076;3.706;2024-02-16T10:31:35;101279.66;;;16.29;85.46
32735;BME280;19112;51.076;3.706;2024-02-16T10:34:02;100914.69;;;14.39;85.46
32735;BME280;19112;51.076;3.706;2024-02-16T10:36:33;101264.38;;;16.14;85.88
32735;BME280;19112;51.076;3.706;2024-02-16T10:39:02;101103.69;;;15.10;85.53
32735;BME280;19112;51.076;3.706;2024-02-16T10:41:37;100645.91;;;12.78;85.41
32735;BME280;19112;51.076;3.706;2024-02-16T10:44:05;101374.16;;;16.30;85.82
32735;BME280;19112;51.076;3.706;2024-02-16T10:46:34;101221.00;;;15.57;85.80
32735;BME280;19112;51.076;3.706;2024-02-16T10:49:02;100952.19;;;13.79;85.44
32735;BME280;19112;51.076;3.706;2024-02-16T10:51:42;101136.28;;;15.09;86.34
32735;BME280;19112;51.076;3.706;2024-02-16T10:54:12;101089.75;;;14.73;86.38
32735;BME280;19112;51.076;3.706;2024-02-16T10:56:40;100435.63;;;10.28;86.61
32735;BME280;19112;51.076;3.706;2024-02-16T10:59:10;100544.91;;;10.56;87.50
32735;BME280;19112;51.076;3.706;2024-02-16T11:01:41;100613.78;;;11.09;88.32
32735;BME280;19112;51.076;3.706;2024-02-16T11:04:18;101029.53;;;14.16;88.64
32735;BME280;19112;51.076;3.706;2024-02-16T11:06:55;101083.28;;;14.57;88.40
32735;BME280;19112;51.076;3.706;2024-02-16T11:09:36;101104.00;;;14.39;88.39
32735;BME280;19112;51.076;3.706;2024-02-16T11:12:05;100862.75;;;12.75;88.41
32735;BME280;19112;51.076;3.706;2024-02-16T11:14:45;100951.09;;;13.30;88.73
32735;BME280;19112;51.076;3.706;2024-02-16T11:17:21;101119.72;;;14.33;89.65
32735;BME280;19112;51.076;3.706;2024-02-16T11:19:50;101394.81;;;15.58;89.43
32735;BME280;19112;51.076;3.706;2024-02-16T11:22:26;101347.00;;;15.51;90.04
32735;BME280;19112;51.076;3.706;2024-02-16T11:24:55;101364.75;;;15.15;90.07
32735;BME280;19112;51.076;3.706;2024-02-16T11:27:21;101074.59;;;13.48;90.51
32735;BME280;19112;51.076;3.706;2024-02-16T11:29:49;100939.50;;;12.23;91.04
32735;BME280;19112;51.076;3.706;2024-02-16T11:32:15;100699.69;;;11.13;90.97
32735;BME280;19112;51.076;3.706;2024-02-16T11:34:42;101358.25;;;15.40;92.15
32735;BME280;19112;51.076;3.706;2024-02-16T11:37:09;100551.19;;;10.61;91.30
32735;BME280;19112;51.076;3.706;2024-02-16T11:39:35;100836.69;;;11.84;91.57
32735;BME280;19112;51.076;3.706;2024-02-16T11:42:08;100700.63;;;11.15;91.56
32735;BME280;19112;51.076;3.706;2024-02-16T11:44:37;101151.06;;;14.19;91.81
32735;BME280;19112;51.076;3.706;2024-02-16T11:47:07;101109.06;;;13.91;91.61
32735;BME280;19112;51.076;3.706;2024-02-16T11:49:41;100882.47;;;12.91;91.08
32735;BME280;19112;51.076;3.706;2024-02-16T11:52:08;100254.91;;;9.40;89.96
32735;BME280;19112;51.076;3.706;2024-02-16T11:54:37;100958.97;;;13.29;89.80
32735;BME280;19112;51.076;3.706;2024-02-16T11:57:04;100569.78;;;11.35;89.44
32735;BME280;19112;51.076;3.706;2024-02-16T11:59:31;101282.88;;;15.20;89.60
32735;BME280;19112;51.076;3.706;2024-02-16T12:01:59;100936.94;;;13.65;89.57
32735;BME280;19112;51.076;3.706;2024-02-16T12:04:29;101126.78;;;14.75;88.70
32735;BME280;19112;51.076;3.706;2024-02-16T12:07:01;101267.00;;;15.20;89.24
32735;BME280;19112;51.076;3.706;2024-02-16T12:09:29;100798.31;;;12.99;88.60
32735;BME280;19112;51.076;3.706;2024-02-16T12:11:57;101178.84;;;15.23;88.90
32735;BME280;19112;51.076;3.706;2024-02-16T12:14:24;100773.75;;;12.62;88.04
32735;BME280;19112;51.076;3.706;2024-02-16T12:16:55;101105.75;;;15.26;87.29
32735;BME280;19112;51.076;3.706;2024-02-16T12:19:23;100796.72;;;13.46;86.43
32735;BME280;19112;51.076;3.706;2024-02-16T12:21:54;101148.66;;;15.11;84.85
32735;BME280;19112;51.076;3.706;2024-02-16T12:24:22;101281.84;;;16.03;85.21
32735;BME280;19112;51.076;3.706;2024-02-16T12:26:49;101508.34;;;17.17;85.51
32735;BME280;19112;51.076;3.706;2024-02-16T12:29:17;100699.50;;;13.21;84.89
32735;BME280;19112;51.076;3.706;2024-02-16T12:31:45;101487.75;;;17.58;84.80
32735;BME280;19112;51.076;3.706;2024-02-16T12:34:13;100319.91;;;10.86;82.74
32735;BME280;19112;51.076;3.706;2024-02-16T12:36:42;101344.59;;;16.55;83.72
32735;BME280;19112;51.076;3.706;2024-02-16T12:39:08;100861.13;;;13.57;83.79
32735;BME280;19112;51.076;3.706;2024-02-16T12:41:39;100051.69;;;9.15;82.93
32735;BME280;19112;51.076;3.706;2024-02-16T12:44:08;101474.91;;;17.28;83.05
32735;BME280;19112;51.076;3.706;2024-02-16T12:46:33;100568.63;;;11.94;82.38
32735;BME280;19112;51.076;3.706;2024-02-16T12:49:03;101165.63;;;15.66;82.78
32735;BME280;19112;51.076;3.706;2024-02-16T12:51:29;101287.47;;;16.72;81.91
32735;BME280;19112;51.076;3.706;2024-02-16T12:53:55;101032.84;;;15.43;82.02